Glassboro, New Jersey
Current Conditions -  °F | °C
As of 5:54 PM on Friday 28 Nov 2014 (Local Time) from KPHL Reporting Station
Scattered Clouds Scattered Clouds  
Wind Chill: 29°   Ceiling: Unl
Heat Index: 35°   Visibility: 10mi
Dew Point: 14°   Wind: 7mph
Humidity: 42%   Direction: 300°WNW
Pressure: 30.27"   Gusts: NA
Location:  39.71°N, 75.11°W
Report Text: KPHL 282254Z 30006KT 10SM FEW045 SCT250 02/M10 A3027 RMK AO2 SLP251 T00171100 $
Loading
Personal Weather Stations






























Interactive Weather Map New forecast layout! Learn more

10-Day Weather Forecast

Advertisements
Track Severe Weather on mobile